Airfield :
LOGIN :

Register | Disclaimer

   EN    FR    IT 

 










Legend :    VFR   Marginal VFR   IFR   Intensive IFR   Very Intensive IFR
Visi :
Ceiling :
>= 8 km
>= 3000ft
5 to 8 km
1000 to 3000 ft
1500m to 5 km
500 to 1000 ft
800 to 1500m
200 to 500 ft
< 800m
< 200 ft
Symbols :   Thunderstorms  Fog  Heavy snow  Heavy precipitations  Wind > 20 kt
SIGMETs :     Misc.  Thunderstorms  Icing  Turbulence  Mountain Waves  Volcanic Ashes






- Airport Elevation : 1090 ft
- IATA code : CFE


LFLC - Clermont-Ferrand Auvergne

CURRENT METAR :
  • 062200Z AUTO 00000KT CAVOK 18/09 Q1025 NOSIG

EXPIRED METARs :
  • 062130Z AUTO VRB02KT CAVOK 18/09 Q1025 NOSIG
  • 062100Z AUTO 32003KT CAVOK 19/10 Q1025 NOSIG
  • 062030Z AUTO 35004KT CAVOK 19/10 Q1025 NOSIG
  • 062000Z AUTO 35003KT CAVOK 20/10 Q1024 NOSIG
  • 061930Z AUTO 36005KT CAVOK 20/10 Q1024 NOSIG
  • 061900Z AUTO 36008KT CAVOK 22/10 Q1024 NOSIG

TAF TAF LFLC
Valid from the 06 at 18:00 until the 07 at 18:00 UTC


061700Z 0618/0718 36009KT CAVOK
BECMG 0620/0622 VRB02KT
BECMG 0708/0710 36010KT
TEMPO 0713/0718 BKN060
ATIS : +33 4 73 62 74 38



MET'MAP, your aeronautical weather chart ! - Copyright ORBIFLY December 2007 - Disclaimer

ORBIFLY MET'MAP TEAM :

Programming & Development : Alexandra Zaïnal
Original concept : Baudouin d'Aumeries
Technical & hardware support : Manuel Goepfert
Assistance : Marc-Olivier Méhu




SOURCES & CREDITS :

   NOAA